sensor_id;sensor_type;location;lat;lon;timestamp;pressure;altitude;pressure_sealevel;temperature;humidity
20160;BME280;50187;50.492;12.134;2023-05-20T00:01:37;98070.56;;;18.48;41.50
20160;BME280;50187;50.492;12.134;2023-05-20T00:04:04;98076.81;;;18.49;41.62
20160;BME280;50187;50.492;12.134;2023-05-20T00:06:31;98071.72;;;18.46;41.73
20160;BME280;50187;50.492;12.134;2023-05-20T00:08:59;98064.06;;;18.51;41.68
20160;BME280;50187;50.492;12.134;2023-05-20T00:11:25;98044.91;;;18.44;41.74
20160;BME280;50187;50.492;12.134;2023-05-20T00:13:52;98083.34;;;18.46;41.67
20160;BME280;50187;50.492;12.134;2023-05-20T00:16:18;98093.81;;;18.49;41.56
20160;BME280;50187;50.492;12.134;2023-05-20T00:18:45;98082.91;;;18.51;41.79
20160;BME280;50187;50.492;12.134;2023-05-20T00:21:12;98077.81;;;18.48;41.83
20160;BME280;50187;50.492;12.134;2023-05-20T00:23:38;98084.03;;;18.48;41.68
20160;BME280;50187;50.492;12.134;2023-05-20T00:26:05;98064.78;;;18.43;41.69
20160;BME280;50187;50.492;12.134;2023-05-20T00:28:31;98086.88;;;18.47;41.68
20160;BME280;50187;50.492;12.134;2023-05-20T00:30:58;98079.81;;;18.46;41.53
20160;BME280;50187;50.492;12.134;2023-05-20T00:33:24;98089.44;;;18.48;41.62
20160;BME280;50187;50.492;12.134;2023-05-20T00:35:51;98084.31;;;18.45;41.64
20160;BME280;50187;50.492;12.134;2023-05-20T00:38:18;98070.16;;;18.43;41.70
20160;BME280;50187;50.492;12.134;2023-05-20T00:40:44;98080.50;;;18.48;41.53
20160;BME280;50187;50.492;12.134;2023-05-20T00:43:11;98102.06;;;18.48;41.58
20160;BME280;50187;50.492;12.134;2023-05-20T00:45:37;98063.19;;;18.41;41.88
20160;BME280;50187;50.492;12.134;2023-05-20T00:48:05;98082.34;;;18.47;41.77
20160;BME280;50187;50.492;12.134;2023-05-20T00:50:32;98079.81;;;18.46;41.85
20160;BME280;50187;50.492;12.134;2023-05-20T00:52:59;98082.34;;;18.47;41.68
20160;BME280;50187;50.492;12.134;2023-05-20T00:55:25;98083.63;;;18.43;41.85
20160;BME280;50187;50.492;12.134;2023-05-20T00:57:52;98080.50;;;18.48;41.83
20160;BME280;50187;50.492;12.134;2023-05-20T01:00:20;98069.72;;;18.38;41.66
20160;BME280;50187;50.492;12.134;2023-05-20T01:02:46;98079.91;;;18.44;41.70
20160;BME280;50187;50.492;12.134;2023-05-20T01:05:13;98088.00;;;18.44;41.86
20160;BME280;50187;50.492;12.134;2023-05-20T01:07:40;98086.88;;;18.47;41.71
20160;BME280;50187;50.492;12.134;2023-05-20T01:10:07;98088.13;;;18.43;41.73
20160;BME280;50187;50.492;12.134;2023-05-20T01:12:44;98085.31;;;18.44;41.70
20160;BME280;50187;50.492;12.134;2023-05-20T01:15:14;98084.31;;;18.45;41.76
20160;BME280;50187;50.492;12.134;2023-05-20T01:17:50;98070.41;;;18.40;41.99
20160;BME280;50187;50.492;12.134;2023-05-20T01:20:18;98081.47;;;18.47;41.83
20160;BME280;50187;50.492;12.134;2023-05-20T01:22:53;98082.34;;;18.47;41.73
20160;BME280;50187;50.492;12.134;2023-05-20T01:25:21;98079.06;;;18.44;41.83
20160;BME280;50187;50.492;12.134;2023-05-20T01:27:49;98071.59;;;18.47;41.76
20160;BME280;50187;50.492;12.134;2023-05-20T01:30:17;98069.59;;;18.49;41.82
20160;BME280;50187;50.492;12.134;2023-05-20T01:32:52;98051.84;;;18.47;41.82
20160;BME280;50187;50.492;12.134;2023-05-20T01:35:25;98050.03;;;18.47;41.68
20160;BME280;50187;50.492;12.134;2023-05-20T01:38:04;98049.88;;;18.49;41.85
20160;BME280;50187;50.492;12.134;2023-05-20T01:40:36;98042.94;;;18.46;41.71
20160;BME280;50187;50.492;12.134;2023-05-20T01:43:07;98055.56;;;18.46;41.77
20160;BME280;50187;50.492;12.134;2023-05-20T01:45:34;98058.13;;;18.47;41.78
20160;BME280;50187;50.492;12.134;2023-05-20T01:48:01;98041.94;;;18.47;41.71
20160;BME280;50187;50.492;12.134;2023-05-20T01:50:28;98045.91;;;18.43;41.87
20160;BME280;50187;50.492;12.134;2023-05-20T01:52:55;98054.69;;;18.45;41.71
20160;BME280;50187;50.492;12.134;2023-05-20T01:55:21;98057.38;;;18.45;41.74
20160;BME280;50187;50.492;12.134;2023-05-20T01:57:48;98021.94;;;18.40;41.68
20160;BME280;50187;50.492;12.134;2023-05-20T02:00:15;98034.00;;;18.46;41.70
20160;BME280;50187;50.492;12.134;2023-05-20T02:02:43;98036.97;;;18.43;41.70
20160;BME280;50187;50.492;12.134;2023-05-20T02:05:11;98038.53;;;18.45;41.75
20160;BME280;50187;50.492;12.134;2023-05-20T02:07:40;98029.31;;;18.38;41.70
20160;BME280;50187;50.492;12.134;2023-05-20T02:10:07;98033.72;;;18.49;41.74
20160;BME280;50187;50.492;12.134;2023-05-20T02:12:35;98033.16;;;18.45;41.76
20160;BME280;50187;50.492;12.134;2023-05-20T02:15:02;98023.63;;;18.41;41.78
20160;BME280;50187;50.492;12.134;2023-05-20T02:17:29;98040.09;;;18.48;41.74
20160;BME280;50187;50.492;12.134;2023-05-20T02:19:56;98022.06;;;18.39;41.84
20160;BME280;50187;50.492;12.134;2023-05-20T02:22:25;98041.38;;;18.44;41.64
20160;BME280;50187;50.492;12.134;2023-05-20T02:24:51;98016.69;;;18.39;41.68
20160;BME280;50187;50.492;12.134;2023-05-20T02:27:18;98065.03;;;18.40;41.83
20160;BME280;50187;50.492;12.134;2023-05-20T02:29:44;98034.00;;;18.46;41.73
20160;BME280;50187;50.492;12.134;2023-05-20T02:32:11;98029.75;;;18.43;41.80
20160;BME280;50187;50.492;12.134;2023-05-20T02:34:38;98014.72;;;18.41;41.89
20160;BME280;50187;50.492;12.134;2023-05-20T02:37:04;98041.94;;;18.47;41.82
20160;BME280;50187;50.492;12.134;2023-05-20T02:39:31;98048.31;;;18.46;41.81
20160;BME280;50187;50.492;12.134;2023-05-20T02:41:58;98043.22;;;18.43;41.74
20160;BME280;50187;50.492;12.134;2023-05-20T02:44:24;98041.09;;;18.47;41.78
20160;BME280;50187;50.492;12.134;2023-05-20T02:46:53;98007.31;;;18.33;41.93
20160;BME280;50187;50.492;12.134;2023-05-20T02:49:19;98006.94;;;18.38;41.72
20160;BME280;50187;50.492;12.134;2023-05-20T02:51:46;98010.16;;;18.41;41.69
20160;BME280;50187;50.492;12.134;2023-05-20T02:54:14;98003.38;;;18.47;41.91
20160;BME280;50187;50.492;12.134;2023-05-20T02:56:41;98030.00;;;18.40;41.92
20160;BME280;50187;50.492;12.134;2023-05-20T02:59:07;98014.13;;;18.37;41.67
20160;BME280;50187;50.492;12.134;2023-05-20T03:01:34;98021.53;;;18.45;41.72
20160;BME280;50187;50.492;12.134;2023-05-20T03:04:02;98022.38;;;18.45;41.81
20160;BME280;50187;50.492;12.134;2023-05-20T03:06:29;98015.00;;;18.38;41.66
20160;BME280;50187;50.492;12.134;2023-05-20T03:08:57;98018.69;;;18.46;42.02
20160;BME280;50187;50.492;12.134;2023-05-20T03:11:24;98026.91;;;18.45;41.85
20160;BME280;50187;50.492;12.134;2023-05-20T03:13:51;98026.03;;;18.44;41.95
20160;BME280;50187;50.492;12.134;2023-05-20T03:16:17;98019.81;;;18.44;41.85
20160;BME280;50187;50.492;12.134;2023-05-20T03:18:44;98028.63;;;18.46;41.89
20160;BME280;50187;50.492;12.134;2023-05-20T03:21:12;98025.94;;;18.46;41.79
20160;BME280;50187;50.492;12.134;2023-05-20T03:23:38;98028.75;;;18.44;41.89
20160;BME280;50187;50.492;12.134;2023-05-20T03:26:06;98016.69;;;18.39;41.78
20160;BME280;50187;50.492;12.134;2023-05-20T03:28:32;98022.22;;;18.37;41.78
20160;BME280;50187;50.492;12.134;2023-05-20T03:30:59;98043.91;;;18.45;41.81
20160;BME280;50187;50.492;12.134;2023-05-20T03:33:29;98023.22;;;18.36;41.87
20160;BME280;50187;50.492;12.134;2023-05-20T03:35:56;98030.88;;;18.41;41.88
20160;BME280;50187;50.492;12.134;2023-05-20T03:38:23;98034.84;;;18.46;41.79
20160;BME280;50187;50.492;12.134;2023-05-20T03:40:49;98020.66;;;18.44;41.62
20160;BME280;50187;50.492;12.134;2023-05-20T03:43:16;98034.13;;;18.44;41.90
20160;BME280;50187;50.492;12.134;2023-05-20T03:45:43;98030.44;;;18.45;41.82
20160;BME280;50187;50.492;12.134;2023-05-20T03:48:12;98034.28;;;18.43;41.88
20160;BME280;50187;50.492;12.134;2023-05-20T03:50:38;98032.69;;;18.40;41.76
20160;BME280;50187;50.492;12.134;2023-05-20T03:53:05;98022.06;;;18.39;41.93
20160;BME280;50187;50.492;12.134;2023-05-20T03:55:38;98032.59;;;18.42;41.71
20160;BME280;50187;50.492;12.134;2023-05-20T03:58:05;98040.66;;;18.42;41.77
20160;BME280;50187;50.492;12.134;2023-05-20T04:00:32;98045.47;;;18.38;41.87
20160;BME280;50187;50.492;12.134;2023-05-20T04:02:59;98030.88;;;18.41;41.94
20160;BME280;50187;50.492;12.134;2023-05-20T04:05:26;98030.72;;;18.42;41.95
20160;BME280;50187;50.492;12.134;2023-05-20T04:07:54;98026.91;;;18.35;41.84
20160;BME280;50187;50.492;12.134;2023-05-20T04:10:23;98059.38;;;18.43;41.79
20160;BME280;50187;50.492;12.134;2023-05-20T04:12:50;98042.22;;;18.44;42.02
20160;BME280;50187;50.492;12.134;2023-05-20T04:15:18;98036.41;;;18.39;41.88
20160;BME280;50187;50.492;12.134;2023-05-20T04:17:51;98054.13;;;18.42;41.74
20160;BME280;50187;50.492;12.134;2023-05-20T04:20:18;98058.38;;;18.44;41.91
20160;BME280;50187;50.492;12.134;2023-05-20T04:22:45;98041.78;;;18.39;41.91
20160;BME280;50187;50.492;12.134;2023-05-20T04:25:11;98049.88;;;18.39;41.80
20160;BME280;50187;50.492;12.134;2023-05-20T04:27:39;98037.09;;;18.41;41.79
20160;BME280;50187;50.492;12.134;2023-05-20T04:30:06;98021.50;;;18.35;42.12
20160;BME280;50187;50.492;12.134;2023-05-20T04:32:37;98028.47;;;18.38;41.87
20160;BME280;50187;50.492;12.134;2023-05-20T04:35:04;98034.28;;;18.43;41.71
20160;BME280;50187;50.492;12.134;2023-05-20T04:37:39;98045.19;;;18.41;41.80
20160;BME280;50187;50.492;12.134;2023-05-20T04:40:08;98058.66;;;18.41;41.94
20160;BME280;50187;50.492;12.134;2023-05-20T04:42:35;98051.31;;;18.43;41.76
20160;BME280;50187;50.492;12.134;2023-05-20T04:45:03;98038.22;;;18.39;41.92
20160;BME280;50187;50.492;12.134;2023-05-20T04:47:32;98031.31;;;18.36;41.76
20160;BME280;50187;50.492;12.134;2023-05-20T04:50:05;98052.97;;;18.44;42.01
20160;BME280;50187;50.492;12.134;2023-05-20T04:52:33;98055.69;;;18.44;41.85
20160;BME280;50187;50.492;12.134;2023-05-20T04:55:00;98043.47;;;18.40;41.77
20160;BME280;50187;50.492;12.134;2023-05-20T04:57:27;98047.88;;;18.41;41.93
20160;BME280;50187;50.492;12.134;2023-05-20T04:59:53;98039.94;;;18.40;41.98
20160;BME280;50187;50.492;12.134;2023-05-20T05:02:24;98047.75;;;18.43;41.84
20160;BME280;50187;50.492;12.134;2023-05-20T05:04:52;98027.59;;;18.37;42.03
20160;BME280;50187;50.492;12.134;2023-05-20T05:07:19;98052.97;;;18.44;41.74
20160;BME280;50187;50.492;12.134;2023-05-20T05:09:47;98042.78;;;18.38;41.68
20160;BME280;50187;50.492;12.134;2023-05-20T05:12:13;98045.78;;;18.45;41.82
20160;BME280;50187;50.492;12.134;2023-05-20T05:14:40;98032.00;;;18.38;42.00
20160;BME280;50187;50.492;12.134;2023-05-20T05:17:07;98030.88;;;18.41;41.83
20160;BME280;50187;50.492;12.134;2023-05-20T05:19:34;98031.03;;;18.39;41.79
20160;BME280;50187;50.492;12.134;2023-05-20T05:22:01;98030.88;;;18.41;42.01
20160;BME280;50187;50.492;12.134;2023-05-20T05:24:29;98044.91;;;18.44;41.98
20160;BME280;50187;50.492;12.134;2023-05-20T05:26:56;98022.94;;;18.39;41.99
20160;BME280;50187;50.492;12.134;2023-05-20T05:29:23;98033.56;;;18.41;41.78
20160;BME280;50187;50.492;12.134;2023-05-20T05:31:49;98022.94;;;18.39;41.85
20160;BME280;50187;50.492;12.134;2023-05-20T05:34:17;98030.72;;;18.42;41.77
20160;BME280;50187;50.492;12.134;2023-05-20T05:36:43;98047.03;;;18.41;41.80
20160;BME280;50187;50.492;12.134;2023-05-20T05:39:10;98044.06;;;18.44;41.85
20160;BME280;50187;50.492;12.134;2023-05-20T05:41:38;98035.97;;;18.44;41.92
20160;BME280;50187;50.492;12.134;2023-05-20T05:44:05;98025.63;;;18.39;41.93
20160;BME280;50187;50.492;12.134;2023-05-20T05:46:33;98019.22;;;18.40;41.75
20160;BME280;50187;50.492;12.134;2023-05-20T05:49:00;98043.06;;;18.45;41.93
20160;BME280;50187;50.492;12.134;2023-05-20T05:51:26;98044.34;;;18.41;41.84
20160;BME280;50187;50.492;12.134;2023-05-20T05:53:55;98036.72;;;18.46;41.98
20160;BME280;50187;50.492;12.134;2023-05-20T05:56:21;98028.75;;;18.44;41.99
20160;BME280;50187;50.492;12.134;2023-05-20T05:58:48;98035.00;;;18.45;42.00
20160;BME280;50187;50.492;12.134;2023-05-20T06:01:15;98026.03;;;18.44;41.94
20160;BME280;50187;50.492;12.134;2023-05-20T06:03:42;98026.03;;;18.44;42.04
20160;BME280;50187;50.492;12.134;2023-05-20T06:06:09;98027.91;;;18.44;41.97
20160;BME280;50187;50.492;12.134;2023-05-20T06:08:35;98033.16;;;18.45;41.81
20160;BME280;50187;50.492;12.134;2023-05-20T06:11:03;98019.81;;;18.44;41.95
20160;BME280;50187;50.492;12.134;2023-05-20T06:13:29;98016.81;;;18.37;41.82
20160;BME280;50187;50.492;12.134;2023-05-20T06:15:56;98035.00;;;18.45;41.86
20160;BME280;50187;50.492;12.134;2023-05-20T06:18:24;98003.19;;;18.29;41.92
20160;BME280;50187;50.492;12.134;2023-05-20T06:20:58;98012.72;;;18.43;41.90
20160;BME280;50187;50.492;12.134;2023-05-20T06:23:25;98015.41;;;18.43;41.82
20160;BME280;50187;50.492;12.134;2023-05-20T06:25:59;98011.44;;;18.47;41.84
20160;BME280;50187;50.492;12.134;2023-05-20T06:28:26;98022.22;;;18.47;41.86
20160;BME280;50187;50.492;12.134;2023-05-20T06:30:53;98018.97;;;18.43;42.02
20160;BME280;50187;50.492;12.134;2023-05-20T06:33:24;98022.22;;;18.47;41.88
20160;BME280;50187;50.492;12.134;2023-05-20T06:35:54;98006.06;;;18.47;42.07
20160;BME280;50187;50.492;12.134;2023-05-20T06:38:21;98003.50;;;18.45;42.01
20160;BME280;50187;50.492;12.134;2023-05-20T06:40:49;98012.56;;;18.44;41.92
20160;BME280;50187;50.492;12.134;2023-05-20T06:43:16;98003.66;;;18.34;41.95
20160;BME280;50187;50.492;12.134;2023-05-20T06:46:01;98004.50;;;18.44;41.98
20160;BME280;50187;50.492;12.134;2023-05-20T06:48:34;98000.97;;;18.44;41.85
20160;BME280;50187;50.492;12.134;2023-05-20T06:51:01;98007.91;;;18.46;41.77
20160;BME280;50187;50.492;12.134;2023-05-20T06:53:27;98013.16;;;18.48;41.72
20160;BME280;50187;50.492;12.134;2023-05-20T06:55:54;98012.31;;;18.47;41.91
20160;BME280;50187;50.492;12.134;2023-05-20T06:58:21;98008.91;;;18.45;42.04
20160;BME280;50187;50.492;12.134;2023-05-20T07:00:48;98017.84;;;18.46;42.00
20160;BME280;50187;50.492;12.134;2023-05-20T07:03:15;98014.88;;;18.49;41.99
20160;BME280;50187;50.492;12.134;2023-05-20T07:05:43;98004.09;;;18.49;41.85
20160;BME280;50187;50.492;12.134;2023-05-20T07:08:10;98009.63;;;18.47;41.88
20160;BME280;50187;50.492;12.134;2023-05-20T07:10:37;98015.16;;;18.46;41.90
20160;BME280;50187;50.492;12.134;2023-05-20T07:13:04;97985.78;;;18.43;42.04
20160;BME280;50187;50.492;12.134;2023-05-20T07:15:30;97994.31;;;18.48;41.74
20160;BME280;50187;50.492;12.134;2023-05-20T07:17:57;97993.31;;;18.49;41.83
20160;BME280;50187;50.492;12.134;2023-05-20T07:20:25;97978.84;;;18.50;42.10
20160;BME280;50187;50.492;12.134;2023-05-20T07:22:52;97988.78;;;18.49;41.90
20160;BME280;50187;50.492;12.134;2023-05-20T07:25:30;97972.06;;;18.46;41.70
20160;BME280;50187;50.492;12.134;2023-05-20T07:27:58;97967.22;;;18.49;42.07
20160;BME280;50187;50.492;12.134;2023-05-20T07:30:26;97986.66;;;18.53;41.88
20160;BME280;50187;50.492;12.134;2023-05-20T07:33:09;97969.63;;;18.52;42.02
20160;BME280;50187;50.492;12.134;2023-05-20T07:35:37;97973.03;;;18.54;41.93
20160;BME280;50187;50.492;12.134;2023-05-20T07:38:03;97973.75;;;18.57;42.04
20160;BME280;50187;50.492;12.134;2023-05-20T07:40:30;97949.78;;;18.53;41.91
20160;BME280;50187;50.492;12.134;2023-05-20T07:42:57;97959.44;;;18.56;41.67
20160;BME280;50187;50.492;12.134;2023-05-20T07:45:24;97942.13;;;18.49;41.89
20160;BME280;50187;50.492;12.134;2023-05-20T07:47:51;97962.13;;;18.56;41.67
20160;BME280;50187;50.492;12.134;2023-05-20T07:50:17;97953.47;;;18.52;41.95
20160;BME280;50187;50.492;12.134;2023-05-20T07:52:44;97978.84;;;18.60;41.85
20160;BME280;50187;50.492;12.134;2023-05-20T07:55:24;97954.44;;;18.61;42.00
20160;BME280;50187;50.492;12.134;2023-05-20T07:57:51;97966.09;;;18.62;41.85
20160;BME280;50187;50.492;12.134;2023-05-20T08:00:18;97961.84;;;18.59;41.84
20160;BME280;50187;50.492;12.134;2023-05-20T08:02:45;97969.63;;;18.62;41.79
20160;BME280;50187;50.492;12.134;2023-05-20T08:05:17;97949.78;;;18.53;41.86
20160;BME280;50187;50.492;12.134;2023-05-20T08:07:45;97959.72;;;18.63;41.95
20160;BME280;50187;50.492;12.134;2023-05-20T08:10:14;97943.56;;;18.63;41.71
20160;BME280;50187;50.492;12.134;2023-05-20T08:12:42;97954.44;;;18.61;42.05
20160;BME280;50187;50.492;12.134;2023-05-20T08:15:09;97948.66;;;18.66;41.97
20160;BME280;50187;50.492;12.134;2023-05-20T08:17:36;97943.81;;;18.60;41.88
20160;BME280;50187;50.492;12.134;2023-05-20T08:20:05;97946.78;;;18.57;41.95
20160;BME280;50187;50.492;12.134;2023-05-20T08:22:34;97951.34;;;18.66;41.90
20160;BME280;50187;50.492;12.134;2023-05-20T08:25:05;97919.31;;;18.53;41.84
20160;BME280;50187;50.492;12.134;2023-05-20T08:27:34;97919.16;;;18.54;42.00
20160;BME280;50187;50.492;12.134;2023-05-20T08:30:04;97928.50;;;18.60;41.88
20160;BME280;50187;50.492;12.134;2023-05-20T08:32:33;97935.31;;;18.64;41.71
20160;BME280;50187;50.492;12.134;2023-05-20T08:35:00;97942.38;;;18.65;41.87
20160;BME280;50187;50.492;12.134;2023-05-20T08:37:28;97934.59;;;18.62;41.89
20160;BME280;50187;50.492;12.134;2023-05-20T08:39:55;97927.78;;;18.58;41.63
20160;BME280;50187;50.492;12.134;2023-05-20T08:42:23;97932.78;;;18.63;41.72
20160;BME280;50187;50.492;12.134;2023-05-20T08:44:52;97927.47;;;18.71;41.77
20160;BME280;50187;50.492;12.134;2023-05-20T08:47:20;97937.28;;;18.62;41.66
20160;BME280;50187;50.492;12.134;2023-05-20T08:49:49;97919.69;;;18.68;41.73
20160;BME280;50187;50.492;12.134;2023-05-20T08:52:20;97930.91;;;18.73;41.70
20160;BME280;50187;50.492;12.134;2023-05-20T08:54:49;97908.91;;;18.68;41.67
20160;BME280;50187;50.492;12.134;2023-05-20T08:57:16;97890.34;;;18.65;41.70
20160;BME280;50187;50.492;12.134;2023-05-20T08:59:45;97932.03;;;18.80;41.74
20160;BME280;50187;50.492;12.134;2023-05-20T09:02:14;97907.91;;;18.79;41.55
20160;BME280;50187;50.492;12.134;2023-05-20T09:04:41;97898.13;;;18.78;41.45
20160;BME280;50187;50.492;12.134;2023-05-20T09:07:10;97910.00;;;18.85;41.38
20160;BME280;50187;50.492;12.134;2023-05-20T09:09:37;97918.69;;;18.79;41.37
20160;BME280;50187;50.492;12.134;2023-05-20T09:12:05;97909.88;;;18.86;41.52
20160;BME280;50187;50.492;12.134;2023-05-20T09:14:32;97904.09;;;18.91;41.54
20160;BME280;50187;50.492;12.134;2023-05-20T09:17:04;97911.31;;;18.91;41.55
20160;BME280;50187;50.492;12.134;2023-05-20T09:19:35;97905.22;;;18.88;41.38
20160;BME280;50187;50.492;12.134;2023-05-20T09:22:03;97902.66;;;18.97;41.48
20160;BME280;50187;50.492;12.134;2023-05-20T09:24:33;97904.63;;;18.95;41.30
20160;BME280;50187;50.492;12.134;2023-05-20T09:27:04;97900.22;;;18.94;41.30
20160;BME280;50187;50.492;12.134;2023-05-20T09:29:32;97895.84;;;18.93;41.62
20160;BME280;50187;50.492;12.134;2023-05-20T09:32:03;97889.19;;;18.97;41.48
20160;BME280;50187;50.492;12.134;2023-05-20T09:34:30;97878.13;;;18.90;41.48
20160;BME280;50187;50.492;12.134;2023-05-20T09:36:59;97899.81;;;18.98;41.52
20160;BME280;50187;50.492;12.134;2023-05-20T09:39:29;97888.16;;;18.98;41.30
20160;BME280;50187;50.492;12.134;2023-05-20T09:42:21;97899.66;;;19.00;41.60
20160;BME280;50187;50.492;12.134;2023-05-20T09:44:55;97895.25;;;18.99;41.41
20160;BME280;50187;50.492;12.134;2023-05-20T09:47:25;97880.94;;;18.98;41.71
20160;BME280;50187;50.492;12.134;2023-05-20T09:49:56;97887.97;;;19.09;41.68
20160;BME280;50187;50.492;12.134;2023-05-20T09:52:26;97871.53;;;19.12;41.36
20160;BME280;50187;50.492;12.134;2023-05-20T09:54:55;97878.31;;;19.16;41.37
20160;BME280;50187;50.492;12.134;2023-05-20T09:57:23;97890.41;;;19.12;41.26
20160;BME280;50187;50.492;12.134;2023-05-20T09:59:51;97872.38;;;19.13;41.43
20160;BME280;50187;50.492;12.134;2023-05-20T10:02:21;97878.03;;;19.19;41.42
20160;BME280;50187;50.492;12.134;2023-05-20T10:04:53;97881.00;;;19.16;41.23
20160;BME280;50187;50.492;12.134;2023-05-20T10:19:27;97859.41;;;19.44;41.21
20160;BME280;50187;50.492;12.134;2023-05-20T10:22:07;97859.69;;;19.51;41.33
20160;BME280;50187;50.492;12.134;2023-05-20T10:24:39;97856.50;;;19.55;40.93
20160;BME280;50187;50.492;12.134;2023-05-20T10:27:13;97847.81;;;19.62;40.86
20160;BME280;50187;50.492;12.134;2023-05-20T10:29:54;97853.75;;;19.65;40.82
20160;BME280;50187;50.492;12.134;2023-05-20T10:32:31;97855.00;;;19.71;40.88
20160;BME280;50187;50.492;12.134;2023-05-20T10:35:07;97854.47;;;19.67;40.79
20160;BME280;50187;50.492;12.134;2023-05-20T10:37:44;97846.88;;;19.81;40.59
20160;BME280;50187;50.492;12.134;2023-05-20T10:40:20;97837.63;;;19.83;40.46
20160;BME280;50187;50.492;12.134;2023-05-20T10:42:52;97839.84;;;19.88;40.69
20160;BME280;50187;50.492;12.134;2023-05-20T10:45:27;97825.81;;;19.84;40.63
20160;BME280;50187;50.492;12.134;2023-05-20T10:47:57;97836.00;;;19.90;40.70
20160;BME280;50187;50.492;12.134;2023-05-20T10:53:04;97822.34;;;19.92;40.46
20160;BME280;50187;50.492;12.134;2023-05-20T10:55:39;97826.56;;;19.95;40.56
20160;BME280;50187;50.492;12.134;2023-05-20T10:58:06;97819.13;;;19.88;40.58
20160;BME280;50187;50.492;12.134;2023-05-20T11:00:35;97814.94;;;19.94;40.57
20160;BME280;50187;50.492;12.134;2023-05-20T11:03:04;97823.88;;;19.95;40.31
20160;BME280;50187;50.492;12.134;2023-05-20T11:05:31;97804.75;;;19.88;40.42
20160;BME280;50187;50.492;12.134;2023-05-20T11:08:06;97814.00;;;19.85;40.57
20160;BME280;50187;50.492;12.134;2023-05-20T11:10:55;97821.25;;;19.85;40.63
20160;BME280;50187;50.492;12.134;2023-05-20T11:13:22;97817.31;;;19.79;40.64
20160;BME280;50187;50.492;12.134;2023-05-20T11:15:48;97828.13;;;19.79;40.56
20160;BME280;50187;50.492;12.134;2023-05-20T11:18:15;97805.41;;;19.72;40.62
20160;BME280;50187;50.492;12.134;2023-05-20T11:20:45;97829.41;;;19.75;40.70
20160;BME280;50187;50.492;12.134;2023-05-20T11:23:13;97812.84;;;19.70;40.82
20160;BME280;50187;50.492;12.134;2023-05-20T11:25:40;97806.53;;;19.79;40.61
20160;BME280;50187;50.492;12.134;2023-05-20T11:28:11;97812.47;;;19.83;40.75
20160;BME280;50187;50.492;12.134;2023-05-20T11:30:43;97808.69;;;19.76;40.73
20160;BME280;50187;50.492;12.134;2023-05-20T11:33:11;97803.13;;;19.77;40.79
20160;BME280;50187;50.492;12.134;2023-05-20T11:35:47;97805.09;;;19.75;41.15
20160;BME280;50187;50.492;12.134;2023-05-20T11:38:15;97808.44;;;19.69;41.08
20160;BME280;50187;50.492;12.134;2023-05-20T11:40:49;97801.50;;;19.66;41.11
20160;BME280;50187;50.492;12.134;2023-05-20T11:43:17;97794.22;;;19.67;41.17
20160;BME280;50187;50.492;12.134;2023-05-20T11:45:55;97795.09;;;19.67;41.10
20160;BME280;50187;50.492;12.134;2023-05-20T11:48:24;97800.66;;;19.66;41.16
20160;BME280;50187;50.492;12.134;2023-05-20T11:50:52;97795.41;;;19.64;41.24
20160;BME280;50187;50.492;12.134;2023-05-20T11:53:21;97784.75;;;19.63;41.29
20160;BME280;50187;50.492;12.134;2023-05-20T11:55:55;97786.59;;;19.62;41.09
20160;BME280;50187;50.492;12.134;2023-05-20T11:58:24;97773.19;;;19.52;41.23
20160;BME280;50187;50.492;12.134;2023-05-20T12:00:51;97779.97;;;19.56;41.30
20160;BME280;50187;50.492;12.134;2023-05-20T12:03:30;97771.03;;;19.56;41.63
20160;BME280;50187;50.492;12.134;2023-05-20T12:06:00;97797.47;;;19.52;41.49
20160;BME280;50187;50.492;12.134;2023-05-20T12:08:28;97787.50;;;19.53;41.71
20160;BME280;50187;50.492;12.134;2023-05-20T12:10:54;97785.13;;;19.50;41.68
20160;BME280;50187;50.492;12.134;2023-05-20T12:13:21;97784.53;;;19.56;41.76
20160;BME280;50187;50.492;12.134;2023-05-20T12:15:49;97757.69;;;19.36;41.76
20160;BME280;50187;50.492;12.134;2023-05-20T12:18:15;97782.13;;;19.53;41.88
20160;BME280;50187;50.492;12.134;2023-05-20T12:20:42;97761.72;;;19.50;42.02
20160;BME280;50187;50.492;12.134;2023-05-20T12:23:08;97754.91;;;19.46;41.95
20160;BME280;50187;50.492;12.134;2023-05-20T12:25:35;97729.78;;;19.46;41.87
20160;BME280;50187;50.492;12.134;2023-05-20T12:28:02;97742.88;;;19.59;41.67
20160;BME280;50187;50.492;12.134;2023-05-20T12:30:29;97734.94;;;19.57;41.66
20160;BME280;50187;50.492;12.134;2023-05-20T12:32:55;97772.56;;;19.41;41.87
20160;BME280;50187;50.492;12.134;2023-05-20T12:35:35;97742.44;;;19.63;41.83
20160;BME280;50187;50.492;12.134;2023-05-20T12:38:04;97725.00;;;19.58;41.86
20160;BME280;50187;50.492;12.134;2023-05-20T12:40:30;97749.13;;;19.59;41.87
20160;BME280;50187;50.492;12.134;2023-05-20T12:42:57;97749.53;;;19.64;41.57
20160;BME280;50187;50.492;12.134;2023-05-20T12:45:24;97750.38;;;19.65;41.66
20160;BME280;50187;50.492;12.134;2023-05-20T12:47:50;97741.88;;;19.60;41.75
20160;BME280;50187;50.492;12.134;2023-05-20T12:50:17;97747.13;;;19.61;41.73
20160;BME280;50187;50.492;12.134;2023-05-20T12:52:44;97733.94;;;19.58;41.82
20160;BME280;50187;50.492;12.134;2023-05-20T12:55:11;97751.53;;;19.62;42.02
20160;BME280;50187;50.492;12.134;2023-05-20T12:57:45;97731.78;;;19.62;41.95
20160;BME280;50187;50.492;12.134;2023-05-20T13:00:12;97733.19;;;19.66;42.12
20160;BME280;50187;50.492;12.134;2023-05-20T13:02:41;97723.38;;;19.65;41.73
20160;BME280;50187;50.492;12.134;2023-05-20T13:05:08;97729.47;;;19.67;41.88
20160;BME280;50187;50.492;12.134;2023-05-20T13:07:35;97725.09;;;19.66;41.82
20160;BME280;50187;50.492;12.134;2023-05-20T13:10:02;97710.41;;;19.68;41.78
20160;BME280;50187;50.492;12.134;2023-05-20T13:12:29;97707.88;;;19.67;41.78